Time;durP1;ratioP1;P1;durP2;ratioP2;P2;SDS_P1;SDS_P2;PMS_P1;PMS_P2;Temp;Humidity;BMP_temperature;BMP_pressure;BME280_temperature;BME280_humidity;BME280_pressure;Samples;Min_cycle;Max_cycle;Signal;HPM_P1;HPM_P2
2021/10/17 00:00:15;;;;;;;2.00;0.50;;;2.00;1.40;;;3.42;100.00;95686.67;645194;216;31525;-72
2021/10/17 00:02:54;;;;;;;0.50;0.45;;;2.00;1.40;;;3.38;100.00;95693.81;647412;216;31979;-72
2021/10/17 00:05:36;;;;;;;1.40;0.90;;;2.00;1.40;;;3.24;100.00;95692.84;618422;226;31935;-70
2021/10/17 00:08:18;;;;;;;0.90;0.80;;;1.80;1.40;;;3.13;100.00;95696.44;646256;216;33279;-72
2021/10/17 00:11:03;;;;;;;1.75;1.00;;;1.70;1.40;;;3.05;100.00;95697.97;647125;216;42517;-72
2021/10/17 00:13:44;;;;;;;2.80;0.90;;;1.60;1.40;;;2.94;100.00;95696.80;630499;221;31855;-72
2021/10/17 00:16:26;;;;;;;0.70;0.50;;;1.50;1.40;;;2.85;100.00;95700.13;646606;216;31519;-73
2021/10/17 00:19:08;;;;;;;1.60;0.60;;;1.50;1.40;;;2.91;100.00;95699.17;647337;212;31497;-73
2021/10/17 00:21:49;;;;;;;1.12;1.10;;;1.60;1.40;;;2.95;100.00;95697.66;647408;216;31566;-73
2021/10/17 00:24:31;;;;;;;0.90;0.40;;;1.60;1.40;;;2.90;100.00;95693.33;646364;212;31588;-73
2021/10/17 00:27:13;;;;;;;2.80;1.20;;;1.50;1.40;;;2.74;100.00;95694.28;619462;226;31893;-73
2021/10/17 00:32:32;;;;;;;1.00;1.00;;;1.30;1.40;;;2.65;100.00;95701.66;645376;212;31580;-74
2021/10/17 00:35:52;;;;;;;0.47;0.47;;;1.30;1.40;;;2.66;100.00;95698.46;646431;212;31557;-73
2021/10/17 00:38:33;;;;;;;1.27;0.88;;;1.30;1.40;;;2.62;100.00;95702.48;646215;212;31535;-73
2021/10/17 00:41:14;;;;;;;0.90;0.57;;;1.20;1.40;;;2.59;100.00;95715.64;647336;212;31773;-73
2021/10/17 00:44:02;;;;;;;1.00;0.60;;;1.20;1.40;;;2.53;100.00;95720.22;617973;225;31842;-72
2021/10/17 00:46:43;;;;;;;1.50;0.90;;;1.10;1.40;;;2.46;100.00;95721.50;646856;212;32084;-73
2021/10/17 00:49:25;;;;;;;0.80;0.40;;;1.10;1.40;;;2.45;100.00;95719.03;646136;216;33667;-72
2021/10/17 00:52:07;;;;;;;1.50;0.50;;;1.20;1.40;;;2.44;100.00;95723.95;647413;216;31478;-73
2021/10/17 00:54:51;;;;;;;0.68;0.65;;;1.20;1.40;;;2.41;100.00;95732.06;647894;212;31582;-73
2021/10/17 00:57:33;;;;;;;1.50;1.08;;;1.10;1.40;;;2.37;100.00;95731.73;645344;216;32271;-72
2021/10/17 01:00:15;;;;;;;1.50;0.70;;;1.10;1.40;;;2.31;100.00;95730.31;646387;216;31638;-73
2021/10/17 01:02:56;;;;;;;0.60;0.60;;;1.10;1.40;;;2.34;100.00;95729.44;646527;212;31833;-72
2021/10/17 01:05:38;;;;;;;1.10;0.70;;;1.10;1.40;;;2.36;100.00;95726.27;646742;216;31500;-72
2021/10/17 01:08:20;;;;;;;0.60;0.60;;;1.10;1.40;;;2.37;100.00;95722.91;645955;216;31642;-71
2021/10/17 01:11:01;;;;;;;0.90;0.70;;;1.20;1.40;;;2.42;100.00;95721.24;646989;216;31607;-71
2021/10/17 01:13:43;;;;;;;0.60;0.60;;;1.20;1.40;;;2.45;100.00;95720.27;645717;216;31851;-73
2021/10/17 01:16:25;;;;;;;3.20;0.40;;;1.30;1.40;;;2.58;100.00;95721.98;647208;212;32229;-71
2021/10/17 01:19:07;;;;;;;0.90;0.60;;;1.50;1.40;;;2.84;100.00;95716.55;619010;222;31924;-71
2021/10/17 01:21:48;;;;;;;0.53;0.43;;;1.60;1.40;;;2.84;100.00;95719.33;647414;212;32021;-73
2021/10/17 01:24:30;;;;;;;1.35;0.88;;;1.60;1.40;;;2.82;100.00;95718.39;647006;216;31529;-71
2021/10/17 01:27:12;;;;;;;0.50;0.45;;;1.60;1.40;;;2.82;100.00;95716.78;647204;212;31545;-71
2021/10/17 01:29:53;;;;;;;0.50;0.40;;;1.60;1.40;;;2.85;100.00;95711.36;645434;216;31731;-71
2021/10/17 01:32:35;;;;;;;2.10;1.30;;;1.70;1.40;;;2.95;100.00;95708.31;646584;216;31612;-73
2021/10/17 01:35:51;;;;;;;1.20;1.05;;;1.90;1.40;;;3.02;100.00;95707.15;645759;212;31756;-73
2021/10/17 01:38:33;;;;;;;1.08;1.08;;;2.10;1.40;;;3.12;100.00;95702.27;647207;216;32827;-71
2021/10/17 01:41:14;;;;;;;1.30;0.90;;;2.10;1.40;;;3.20;100.00;95706.41;647468;216;32193;-73
2021/10/17 01:44:05;;;;;;;1.10;0.70;;;2.20;1.40;;;3.30;100.00;95700.56;646394;216;32142;-73
2021/10/17 01:46:46;;;;;;;1.00;1.00;;;2.20;1.40;;;3.27;100.00;95699.08;646062;216;42896;-72
2021/10/17 01:49:28;;;;;;;2.35;2.08;;;2.20;1.40;;;3.24;100.00;95701.41;646893;216;31518;-71
2021/10/17 01:52:14;;;;;;;2.50;1.70;;;2.30;1.40;;;3.32;100.00;95699.78;645817;212;34590;-73
2021/10/17 01:54:55;;;;;;;1.50;1.30;;;2.30;1.40;;;3.40;100.00;95699.83;646982;212;31555;-72
2021/10/17 01:57:37;;;;;;;1.60;0.90;;;2.40;1.40;;;3.44;100.00;95696.12;647861;216;31538;-72
2021/10/17 02:00:19;;;;;;;1.80;1.25;;;2.50;1.40;;;3.46;100.00;95690.56;645547;216;31604;-71
2021/10/17 02:03:00;;;;;;;0.50;0.50;;;2.50;1.40;;;3.53;100.00;95687.13;645909;212;31593;-73
2021/10/17 02:05:43;;;;;;;1.10;1.00;;;2.50;1.40;;;3.58;100.00;95689.36;618347;222;31886;-73
2021/10/17 02:08:25;;;;;;;0.80;0.80;;;2.60;1.40;;;3.59;100.00;95691.84;646020;212;31542;-73
2021/10/17 02:11:07;;;;;;;2.05;1.23;;;2.70;1.40;;;3.65;100.00;95693.07;646242;212;31493;-73
2021/10/17 02:13:48;;;;;;;1.60;1.50;;;2.70;1.40;;;3.58;100.00;95691.45;618425;222;31937;-73
2021/10/17 02:16:30;;;;;;;1.90;1.00;;;2.70;1.40;;;3.67;100.00;95690.03;644680;216;31578;-72
2021/10/17 02:21:46;;;;;;;1.50;1.10;;;2.90;1.40;;;3.86;100.00;95691.12;617804;225;31906;-73
2021/10/17 02:24:28;;;;;;;1.35;1.25;;;3.00;1.40;;;3.89;100.00;95692.66;646433;216;31587;-72
2021/10/17 02:27:13;;;;;;;2.10;1.20;;;3.00;1.40;;;3.94;100.00;95697.48;619983;222;31945;-72
2021/10/17 02:29:54;;;;;;;1.60;1.00;;;3.10;1.40;;;3.93;100.00;95695.55;646996;216;31734;-72
2021/10/17 02:32:36;;;;;;;0.50;0.50;;;3.00;1.40;;;3.86;100.00;95693.48;644655;216;31549;-73
2021/10/17 02:35:51;;;;;;;0.60;0.60;;;3.00;1.40;;;3.76;100.00;95693.03;618099;226;42962;-71
2021/10/17 02:38:33;;;;;;;1.70;1.00;;;2.90;1.40;;;3.77;100.00;95694.65;619461;225;31901;-72
2021/10/17 02:41:15;;;;;;;0.50;0.50;;;2.80;1.40;;;3.82;100.00;95694.95;642290;212;35945;-72
2021/10/17 02:43:56;;;;;;;1.10;1.00;;;2.80;1.40;;;3.86;100.00;95692.20;646148;216;31554;-73
2021/10/17 02:46:38;;;;;;;2.50;1.17;;;2.80;1.40;;;3.82;100.00;95693.45;646319;212;31505;-74
2021/10/17 02:49:20;;;;;;;1.20;1.08;;;2.70;1.40;;;3.82;100.00;95695.59;646024;212;31547;-72
2021/10/17 02:52:05;;;;;;;2.33;2.12;;;2.70;1.40;;;3.67;100.00;95691.75;645063;212;31566;-73
2021/10/17 02:54:46;;;;;;;1.00;0.90;;;2.70;1.40;;;3.67;100.00;95699.31;646536;216;31553;-73
2021/10/17 02:57:31;;;;;;;1.10;0.93;;;2.70;1.40;;;3.61;100.00;95700.11;647611;216;31526;-72
2021/10/17 03:00:14;;;;;;;1.05;0.77;;;2.60;1.40;;;3.61;100.00;95701.77;646212;216;42185;-72
2021/10/17 03:02:59;;;;;;;3.40;1.50;;;2.60;1.40;;;3.55;100.00;95697.53;644891;216;31844;-72
2021/10/17 03:05:40;;;;;;;1.73;1.07;;;2.50;1.40;;;3.58;100.00;95702.13;646578;216;33219;-73
2021/10/17 03:08:22;;;;;;;0.77;0.77;;;2.30;1.40;;;3.58;100.00;95699.12;645865;216;31537;-73
2021/10/17 03:11:04;;;;;;;0.90;0.77;;;2.40;1.40;;;3.55;100.00;95697.97;645459;212;31485;-72
2021/10/17 03:13:45;;;;;;;1.10;0.50;;;2.60;1.40;;;3.49;100.00;95699.12;619370;226;32099;-73
2021/10/17 03:16:27;;;;;;;0.60;0.50;;;2.60;1.40;;;3.42;100.00;95696.95;647740;216;32054;-73
2021/10/17 03:19:10;;;;;;;1.12;1.02;;;2.50;1.40;;;3.40;100.00;95696.98;646388;216;31484;-73
2021/10/17 03:21:51;;;;;;;1.37;1.00;;;2.50;1.40;;;3.43;100.00;95697.61;646111;212;31581;-72
2021/10/17 03:24:33;;;;;;;1.85;0.90;;;2.60;1.40;;;3.40;100.00;95700.96;647021;212;31507;-73
2021/10/17 03:27:15;;;;;;;1.80;1.20;;;2.50;1.40;;;3.35;100.00;95701.02;646797;216;31560;-71
2021/10/17 03:29:56;;;;;;;1.60;1.50;;;2.40;1.40;;;3.32;100.00;95700.32;646622;216;31796;-73
2021/10/17 03:32:38;;;;;;;1.12;0.95;;;2.40;1.40;;;3.23;100.00;95701.30;646017;212;31548;-74
2021/10/17 03:35:51;;;;;;;1.50;1.12;;;2.30;1.40;;;3.26;100.00;95699.61;646445;212;31695;-71
2021/10/17 03:38:33;;;;;;;1.27;1.17;;;2.30;1.40;;;3.34;100.00;95702.20;645801;216;31578;-72
2021/10/17 03:41:15;;;;;;;0.90;0.80;;;2.30;1.40;;;3.37;100.00;95703.83;642108;212;31710;-71
2021/10/17 03:43:56;;;;;;;2.30;1.00;;;2.30;1.40;;;3.45;100.00;95703.53;647038;216;31595;-73
2021/10/17 03:46:38;;;;;;;0.85;0.85;;;2.40;1.40;;;3.49;100.00;95703.13;646531;212;31654;-73
2021/10/17 03:49:20;;;;;;;0.75;0.75;;;2.40;1.40;;;3.52;100.00;95704.34;645939;216;31721;-72
2021/10/17 03:52:01;;;;;;;1.00;0.60;;;2.50;1.40;;;3.44;100.00;95691.99;645791;212;31672;-73
2021/10/17 03:54:44;;;;;;;0.50;0.50;;;2.50;1.40;;;3.53;100.00;95695.77;646817;212;31802;-74
2021/10/17 03:57:25;;;;;;;1.37;0.95;;;2.50;1.40;;;3.63;100.00;95691.44;645805;216;32138;-74
2021/10/17 04:00:08;;;;;;;1.60;1.20;;;2.50;1.40;;;3.80;100.00;95694.13;645651;216;40293;-72
2021/10/17 04:02:50;;;;;;;0.73;0.70;;;2.70;1.40;;;3.99;100.00;95697.05;646331;216;31600;-73
2021/10/17 04:05:31;;;;;;;0.85;0.57;;;2.70;1.40;;;4.01;100.00;95697.44;645803;212;31524;-72
2021/10/17 04:08:16;;;;;;;0.65;0.65;;;2.80;1.40;;;4.16;100.00;95690.11;642362;215;42572;-73
2021/10/17 04:10:57;;;;;;;1.70;0.70;;;2.90;1.40;;;4.08;100.00;95691.48;646511;216;31743;-71
2021/10/17 04:13:39;;;;;;;0.62;0.50;;;2.90;1.40;;;4.37;100.00;95687.97;646789;212;31641;-72
2021/10/17 04:16:21;;;;;;;0.60;0.50;;;3.10;1.40;;;4.44;100.00;95689.19;646386;212;31649;-72
2021/10/17 04:19:04;;;;;;;0.80;0.60;;;3.10;1.40;;;4.45;100.00;95691.29;645996;212;32129;-73
2021/10/17 04:21:44;;;;;;;1.20;0.60;;;3.10;1.40;;;4.53;100.00;95689.32;644483;212;32444;-72
2021/10/17 04:24:27;;;;;;;1.20;0.87;;;3.10;1.40;;;4.61;100.00;95694.25;646711;212;40098;-73
2021/10/17 04:27:09;;;;;;;1.50;0.90;;;3.20;1.40;;;4.58;100.00;95698.95;646399;215;31532;-71
2021/10/17 04:29:50;;;;;;;1.05;0.90;;;3.20;1.40;;;4.66;100.00;95695.97;646541;216;31654;-74
2021/10/17 04:32:32;;;;;;;1.30;1.10;;;3.20;1.40;;;4.73;100.00;95696.05;618296;226;32537;-73
2021/10/17 04:35:51;;;;;;;0.70;0.50;;;3.20;1.40;;;4.46;100.00;95691.72;646045;216;31752;-73
2021/10/17 04:38:33;;;;;;;0.62;0.55;;;3.10;1.40;;;4.42;100.00;95692.40;647292;212;32043;-74
2021/10/17 04:41:14;;;;;;;1.43;1.03;;;3.10;1.40;;;4.37;100.00;95688.98;644193;216;42290;-71
2021/10/17 04:43:56;;;;;;;0.73;0.43;;;3.10;1.40;;;4.40;100.00;95686.37;617818;222;32035;-73
2021/10/17 04:46:37;;;;;;;1.42;0.65;;;3.10;1.40;;;4.46;100.00;95685.33;647253;216;31497;-73
2021/10/17 04:49:25;;;;;;;1.37;0.95;;;3.20;1.40;;;4.52;100.00;95679.22;645705;212;31702;-72
2021/10/17 04:52:01;;;;;;;1.83;1.73;;;3.20;1.40;;;4.52;100.00;95680.56;645541;212;31532;-71
2021/10/17 04:54:42;;;;;;;0.73;0.73;;;3.20;1.40;;;4.54;100.00;95666.83;646268;212;42139;-71
2021/10/17 04:57:24;;;;;;;0.90;0.50;;;3.20;1.40;;;4.54;100.00;95668.28;647177;212;31489;-71
2021/10/17 05:00:07;;;;;;;0.80;0.80;;;3.30;1.40;;;4.61;100.00;95667.94;645263;216;31628;-73
2021/10/17 05:02:48;;;;;;;1.17;1.08;;;3.30;1.40;;;4.65;100.00;95671.42;647409;216;31546;-72
2021/10/17 05:05:33;;;;;;;1.50;1.17;;;3.30;1.40;;;4.62;100.00;95674.38;646881;216;32130;-71
2021/10/17 05:08:15;;;;;;;1.00;0.60;;;3.20;1.40;;;4.45;100.00;95674.22;646954;212;32337;-73
2021/10/17 05:10:56;;;;;;;1.60;0.80;;;3.20;1.40;;;4.41;100.00;95671.30;646332;216;41495;-73
2021/10/17 05:13:39;;;;;;;0.80;0.80;;;3.10;1.40;;;4.41;100.00;95671.03;646350;216;31526;-73
2021/10/17 05:16:20;;;;;;;0.60;0.60;;;3.20;1.40;;;4.43;100.00;95676.52;646194;216;31546;-73
2021/10/17 05:19:02;;;;;;;1.35;1.25;;;3.20;1.40;;;4.41;100.00;95672.96;645661;216;31491;-72
2021/10/17 05:21:48;;;;;;;1.65;0.88;;;3.20;1.40;;;4.30;100.00;95677.03;646564;212;31556;-71
2021/10/17 05:24:28;;;;;;;0.60;0.60;;;3.10;1.40;;;4.35;100.00;95671.70;646094;216;31543;-72
2021/10/17 05:27:10;;;;;;;2.53;1.33;;;3.20;1.40;;;4.42;100.00;95675.22;615995;225;31870;-70
2021/10/17 05:29:52;;;;;;;1.70;1.10;;;3.30;1.40;;;4.38;100.00;95674.77;645831;212;31548;-72
2021/10/17 05:32:33;;;;;;;0.90;0.80;;;3.30;1.40;;;4.39;100.00;95673.91;646397;212;31884;-73
2021/10/17 05:35:50;;;;;;;0.98;0.90;;;3.30;1.40;;;4.45;100.00;95677.70;620173;226;31932;-74
2021/10/17 05:38:32;;;;;;;1.37;0.85;;;3.40;1.40;;;4.51;100.00;95679.91;646352;212;31681;-74
2021/10/17 05:41:14;;;;;;;1.00;0.80;;;3.30;1.40;;;4.44;100.00;95681.19;646352;216;31565;-72
2021/10/17 05:43:56;;;;;;;1.30;1.00;;;3.40;1.40;;;4.47;100.00;95679.03;645857;216;31556;-71
2021/10/17 05:46:37;;;;;;;1.50;0.90;;;3.40;1.40;;;4.46;100.00;95679.80;646267;212;31501;-74
2021/10/17 05:49:22;;;;;;;2.10;1.37;;;3.40;1.40;;;4.43;100.00;95683.55;646056;212;32122;-74
2021/10/17 05:52:04;;;;;;;1.58;1.37;;;3.40;1.40;;;4.54;100.00;95683.31;646056;216;42197;-73
2021/10/17 05:54:46;;;;;;;0.80;0.62;;;3.40;1.40;;;4.45;100.00;95683.98;645371;212;32571;-72
2021/10/17 05:57:28;;;;;;;1.20;1.10;;;3.40;1.40;;;4.42;100.00;95684.51;642376;216;31589;-72
2021/10/17 06:00:10;;;;;;;0.70;0.70;;;3.40;1.40;;;4.44;100.00;95685.86;646975;212;31558;-71
2021/10/17 06:02:51;;;;;;;0.90;0.90;;;3.40;1.40;;;4.32;100.00;95691.38;646609;212;31512;-72
2021/10/17 06:05:36;;;;;;;2.40;1.33;;;3.40;1.40;;;4.32;100.00;95694.75;647928;212;31585;-73
2021/10/17 06:08:19;;;;;;;1.35;1.25;;;3.40;1.40;;;4.24;100.00;95699.02;646441;212;31521;-72
2021/10/17 06:12:02;;;;;;;1.25;0.90;;;3.40;1.40;;;4.34;100.00;95701.59;645666;216;31649;-72
2021/10/17 06:14:44;;;;;;;1.80;1.40;;;3.40;1.40;;;4.41;100.00;95698.73;648134;212;31507;-73
2021/10/17 06:17:29;;;;;;;0.60;0.60;;;3.40;1.40;;;4.41;100.00;95701.69;618826;222;32038;-74
2021/10/17 06:20:10;;;;;;;1.60;0.90;;;3.40;1.40;;;4.57;100.00;95697.02;646609;212;31556;-72
2021/10/17 06:22:52;;;;;;;1.23;0.80;;;3.50;1.40;;;4.50;100.00;95702.30;646317;216;31504;-73
2021/10/17 06:25:34;;;;;;;1.48;1.37;;;3.50;1.40;;;4.63;100.00;95704.36;645372;216;31541;-71
2021/10/17 06:28:15;;;;;;;1.42;1.30;;;3.50;1.40;;;4.66;100.00;95705.31;645859;216;31716;-72
2021/10/17 06:30:57;;;;;;;1.08;0.98;;;3.60;1.40;;;4.89;100.00;95712.91;619181;226;31926;-72
2021/10/17 06:35:50;;;;;;;2.70;1.25;;;3.70;1.40;;;5.15;100.00;95723.69;646650;212;31885;-72
2021/10/17 06:38:32;;;;;;;0.60;0.45;;;3.80;1.40;;;5.05;100.00;95723.97;647953;212;31606;-73
2021/10/17 06:41:14;;;;;;;1.10;1.10;;;3.80;1.40;;;4.89;100.00;95722.85;641734;212;31675;-70
2021/10/17 06:43:56;;;;;;;0.80;0.80;;;3.70;1.40;;;4.86;100.00;95729.88;645321;212;31613;-71
2021/10/17 06:46:37;;;;;;;1.30;1.20;;;3.70;1.40;;;4.90;100.00;95727.27;646029;212;31702;-72
2021/10/17 06:49:19;;;;;;;0.90;0.90;;;3.80;1.40;;;4.91;100.00;95725.87;646028;216;31777;-73
2021/10/17 06:52:04;;;;;;;1.40;1.20;;;3.90;1.40;;;5.01;100.00;95730.16;617814;222;31940;-70
2021/10/17 06:54:45;;;;;;;1.90;1.12;;;3.90;1.40;;;4.96;100.00;95726.22;619070;222;31950;-71
2021/10/17 06:57:27;;;;;;;1.10;0.95;;;3.90;1.40;;;5.14;100.00;95726.26;644460;216;31533;-72
2021/10/17 07:00:10;;;;;;;0.70;0.70;;;4.10;1.40;;;5.36;100.00;95730.50;645765;216;31718;-70
2021/10/17 07:02:51;;;;;;;1.50;0.80;;;4.30;1.40;;;5.38;100.00;95729.64;646135;212;31590;-71
2021/10/17 07:05:33;;;;;;;1.20;1.20;;;4.30;1.40;;;5.20;100.00;95739.07;646918;216;31595;-70
2021/10/17 07:08:15;;;;;;;1.20;1.10;;;4.20;1.40;;;5.34;100.00;95741.67;647007;216;31566;-73
2021/10/17 07:11:00;;;;;;;1.65;0.90;;;4.30;1.40;;;5.45;100.00;95742.16;645193;216;42718;-73
2021/10/17 07:13:41;;;;;;;1.83;1.08;;;4.50;1.40;;;5.65;100.00;95743.47;645560;216;31630;-72
2021/10/17 07:16:23;;;;;;;1.20;1.10;;;4.60;1.40;;;5.59;100.00;95742.28;647134;212;31732;-73
2021/10/17 07:19:05;;;;;;;1.90;1.80;;;4.60;1.40;;;5.72;100.00;95747.14;645673;216;31834;-70
2021/10/17 07:21:46;;;;;;;1.20;1.20;;;4.70;1.40;;;5.73;100.00;95747.03;646412;216;31562;-73
2021/10/17 07:24:28;;;;;;;0.88;0.50;;;4.80;1.40;;;5.80;100.00;95744.33;646415;216;32123;-71
2021/10/17 07:27:13;;;;;;;0.95;0.95;;;4.80;1.40;;;5.95;100.00;95745.80;645623;216;31722;-72
2021/10/17 07:29:54;;;;;;;0.50;0.50;;;5.00;1.40;;;5.98;100.00;95748.71;647948;216;42009;-72
2021/10/17 07:32:36;;;;;;;0.82;0.80;;;5.00;1.40;;;6.19;100.00;95747.89;646745;212;31820;-70
2021/10/17 07:35:51;;;;;;;1.40;1.30;;;5.20;1.40;;;6.49;100.00;95750.00;618868;226;32509;-72
2021/10/17 07:38:33;;;;;;;1.00;1.00;;;5.50;1.40;;;6.67;100.00;95750.97;648495;216;42751;-71
2021/10/17 07:41:15;;;;;;;1.08;0.77;;;5.50;1.40;;;6.88;100.00;95750.00;643632;215;31567;-71
2021/10/17 07:43:57;;;;;;;0.70;0.70;;;5.60;1.40;;;6.99;100.00;95752.83;644755;216;34452;-72
2021/10/17 07:46:38;;;;;;;1.90;1.80;;;5.60;1.40;;;7.41;100.00;95755.15;646968;216;31550;-71
2021/10/17 07:49:20;;;;;;;1.00;0.90;;;6.00;1.40;;;7.51;100.00;95754.05;646886;212;31619;-70
2021/10/17 07:52:02;;;;;;;0.90;0.80;;;6.00;1.40;;;7.42;100.00;95752.77;646106;216;31576;-71
2021/10/17 07:54:43;;;;;;;1.10;1.10;;;5.80;1.40;;;8.05;100.00;95751.97;646768;212;31504;-70
2021/10/17 07:57:25;;;;;;;1.23;1.13;;;6.30;1.40;;;7.96;100.00;95749.95;646353;216;31963;-71
2021/10/17 08:00:08;;;;;;;2.00;1.50;;;6.30;1.40;;;8.44;100.00;95743.38;645633;216;31697;-70
2021/10/17 08:02:50;;;;;;;1.40;1.30;;;6.60;1.40;;;8.63;100.00;95740.73;646669;216;32128;-71
2021/10/17 08:05:35;;;;;;;1.60;1.50;;;6.60;1.40;;;8.67;100.00;95739.78;619117;222;31831;-71
2021/10/17 08:08:17;;;;;;;1.30;1.20;;;6.80;1.40;;;8.88;100.00;95740.57;630557;222;31747;-71
2021/10/17 08:10:58;;;;;;;2.00;1.50;;;7.00;1.40;;;8.99;100.00;95740.33;645193;212;31552;-70
2021/10/17 08:13:40;;;;;;;1.80;1.40;;;7.20;1.40;;;10.11;100.00;95737.06;645522;216;31555;-70
2021/10/17 08:16:22;;;;;;;1.33;1.20;;;7.90;1.40;;;10.19;100.00;95740.89;646441;216;31596;-70
2021/10/17 08:19:03;;;;;;;1.90;1.80;;;7.80;1.40;;;9.88;100.00;95739.11;647914;212;31660;-70
2021/10/17 08:21:45;;;;;;;1.80;1.60;;;7.70;1.40;;;11.04;100.00;95737.43;646254;212;31807;-72
2021/10/17 08:24:27;;;;;;;1.92;1.83;;;8.20;1.40;;;10.49;100.00;95744.56;645833;212;31680;-69
2021/10/17 08:27:08;;;;;;;1.67;1.57;;;8.10;1.40;;;9.94;100.00;95744.01;645950;216;31685;-70
2021/10/17 08:29:50;;;;;;;2.00;1.63;;;7.80;1.40;;;10.12;100.00;95751.58;645343;212;42084;-71
2021/10/17 08:32:32;;;;;;;2.40;1.90;;;8.00;1.40;;;10.65;100.00;95749.69;647707;213;31588;-71
2021/10/17 08:35:54;;;;;;;2.30;2.10;;;8.00;1.40;;;10.10;100.00;95751.66;646775;216;31676;-71
2021/10/17 08:38:35;;;;;;;2.10;1.57;;;8.10;1.40;;;10.25;100.00;95750.99;646873;212;42594;-71
2021/10/17 08:41:17;;;;;;;2.40;2.20;;;8.30;1.40;;;10.86;100.00;95749.40;642658;212;42441;-71
2021/10/17 08:43:59;;;;;;;2.00;1.90;;;9.20;1.40;;;11.09;100.00;95751.00;617826;226;32368;-71
2021/10/17 08:46:41;;;;;;;3.25;2.22;;;10.20;1.40;;;12.34;100.00;95751.61;646385;212;42184;-71
2021/10/17 08:49:22;;;;;;;3.53;2.50;;;12.50;1.40;;;13.68;100.00;95753.30;647051;216;31658;-70
2021/10/17 08:52:10;;;;;;;2.33;2.12;;;13.60;1.40;;;14.89;100.00;95752.66;646957;212;31767;-71
2021/10/17 08:54:47;;;;;;;2.30;1.98;;;14.70;1.40;;;16.25;100.00;95754.70;630002;221;31919;-70
2021/10/17 08:57:28;;;;;;;2.30;2.10;;;14.50;1.40;;;16.05;100.00;95751.75;646345;212;31581;-70
2021/10/17 09:00:24;;;;;;;2.17;1.98;;;12.40;1.40;;;16.09;100.00;95750.91;645151;216;31540;-70
2021/10/17 09:03:05;;;;;;;3.03;2.22;;;13.50;1.40;;;18.61;100.00;95751.38;646500;216;42173;-71
2021/10/17 09:05:47;;;;;;;2.80;2.07;;;16.60;1.40;;;20.04;90.90;95746.31;646957;216;31613;-71
2021/10/17 09:08:29;;;;;;;2.60;2.30;;;18.70;1.40;;;22.32;81.42;95745.12;647315;212;31695;-72
2021/10/17 09:11:11;;;;;;;3.20;2.00;;;19.60;1.40;;;23.17;77.21;95746.38;646893;216;31559;-71
2021/10/17 09:14:04;;;;;;;2.70;2.30;;;20.50;1.40;;;24.32;80.98;95742.02;645995;212;31730;-73
2021/10/17 09:16:46;;;;;;;1.90;1.70;;;21.10;1.40;;;25.13;65.53;95742.95;618455;226;32283;-71
2021/10/17 09:19:29;;;;;;;2.85;2.42;;;19.60;1.40;;;22.48;56.99;95745.38;646692;216;31592;-71
2021/10/17 09:22:12;;;;;;;3.15;2.30;;;17.50;1.40;;;22.97;78.60;95746.91;646571;216;31733;-71
2021/10/17 09:24:52;;;;;;;3.40;3.00;;;18.40;1.40;;;23.86;70.87;95744.27;645257;216;31808;-71
2021/10/17 09:27:33;;;;;;;4.75;2.80;;;20.30;1.40;;;24.95;61.85;95737.52;647186;216;31915;-72
2021/10/17 09:30:15;;;;;;;4.20;3.12;;;20.50;1.40;;;24.67;56.90;95740.82;618466;226;31970;-71
2021/10/17 09:35:51;;;;;;;3.10;2.80;;;19.10;1.40;;;23.75;65.50;95744.73;645733;216;31594;-71
2021/10/17 09:38:36;;;;;;;4.72;2.58;;;17.50;1.40;;;23.31;64.52;95746.67;647021;216;31571;-71
2021/10/17 09:41:18;;;;;;;3.30;2.72;;;17.50;1.40;;;23.56;71.04;95743.17;642412;216;31722;-72
2021/10/17 09:43:59;;;;;;;2.92;2.60;;;17.50;1.40;;;24.82;66.07;95736.70;645766;212;42219;-71
2021/10/17 09:46:55;;;;;;;4.47;2.50;;;19.60;1.40;;;24.91;56.13;95737.62;645312;212;31767;-73
2021/10/17 09:49:36;;;;;;;3.05;2.75;;;19.80;1.40;;;24.31;51.19;95749.72;619536;222;32190;-72
2021/10/17 09:52:19;;;;;;;2.92;2.50;;;19.30;1.40;;;23.12;60.03;95751.53;631584;217;31669;-72
2021/10/17 09:55:07;;;;;;;4.97;3.60;;;18.90;1.40;;;23.40;60.85;95751.24;646561;212;31569;-73
2021/10/17 09:57:49;;;;;;;3.72;3.33;;;17.80;1.40;;;23.50;59.55;95751.50;646498;212;31663;-70
2021/10/17 10:00:31;;;;;;;3.55;3.25;;;18.40;1.40;;;24.25;54.79;95750.22;645879;216;31641;-71
2021/10/17 10:03:16;;;;;;;3.30;3.00;;;20.10;1.40;;;25.71;48.87;95741.73;646200;216;31621;-71
2021/10/17 10:05:58;;;;;;;4.10;3.45;;;19.90;1.40;;;25.17;47.96;95741.09;620159;222;32032;-72
2021/10/17 10:08:39;;;;;;;4.60;3.90;;;20.40;1.40;;;25.52;47.89;95742.89;646385;212;42785;-73
2021/10/17 10:11:22;;;;;;;4.53;3.58;;;21.20;1.40;;;25.07;47.87;95742.34;645718;216;32252;-71
2021/10/17 10:14:03;;;;;;;4.32;3.40;;;20.70;1.40;;;27.22;47.54;95738.28;647612;212;31830;-71
2021/10/17 10:16:44;;;;;;;5.03;3.65;;;22.10;1.40;;;24.82;48.10;95738.56;644495;216;31727;-72
2021/10/17 10:19:26;;;;;;;4.30;3.12;;;19.80;1.40;;;26.24;47.53;95736.00;647023;213;31663;-72
2021/10/17 10:22:07;;;;;;;4.07;3.67;;;19.90;1.40;;;27.24;48.76;95734.15;619509;222;32112;-71
2021/10/17 10:24:50;;;;;;;4.97;4.00;;;20.70;1.40;;;27.15;47.62;95730.47;646080;212;31898;-72
2021/10/17 10:27:32;;;;;;;5.72;3.78;;;21.90;1.40;;;29.06;44.05;95726.53;646280;216;31597;-71
2021/10/17 10:30:20;;;;;;;5.40;3.90;;;22.60;1.40;;;28.70;40.97;95729.05;646297;212;31573;-71
2021/10/17 10:39:00;;;;;;;4.30;3.85;;;18.70;1.40;;;25.87;45.69;95724.52;646906;212;42180;-71
2021/10/17 10:41:47;;;;;;;5.53;3.72;;;16.90;1.40;;;25.08;51.20;95724.20;640476;212;31893;-75
2021/10/17 10:44:40;;;;;;;4.75;3.97;;;18.90;1.40;;;24.61;50.50;95720.80;645346;212;31643;-72
2021/10/17 10:47:21;;;;;;;4.57;3.87;;;18.20;1.40;;;25.18;50.03;95719.86;646607;216;31572;-73
2021/10/17 10:50:08;;;;;;;4.20;3.45;;;20.60;1.40;;;25.76;49.02;95718.75;645982;212;31601;-74
2021/10/17 10:52:50;;;;;;;5.10;4.00;;;20.70;1.40;;;25.78;47.14;95722.44;646983;212;31564;-72
2021/10/17 10:58:23;;;;;;;4.93;3.97;;;18.90;1.40;;;25.99;48.79;95717.92;647055;212;32346;-73
2021/10/17 11:03:44;;;;;;;4.97;4.47;;;23.50;1.40;;;29.84;38.48;95707.25;645526;216;31703;-72
2021/10/17 11:06:25;;;;;;;4.90;4.40;;;22.70;1.40;;;30.06;40.56;95710.10;647740;212;31586;-72
2021/10/17 11:09:22;;;;;;;6.80;5.05;;;22.20;1.40;;;27.66;41.73;95711.32;646238;216;42316;-72
2021/10/17 11:12:03;;;;;;;6.12;4.15;;;21.40;1.40;;;29.29;38.69;95704.54;646886;216;32154;-72
2021/10/17 11:14:45;;;;;;;5.70;5.10;;;22.50;1.40;;;30.01;41.33;95699.20;619124;222;31901;-73
2021/10/17 11:17:27;;;;;;;6.10;4.97;;;23.00;1.40;;;30.81;37.89;95689.89;646031;212;31615;-71
2021/10/17 11:20:08;;;;;;;5.60;4.72;;;22.30;1.40;;;30.37;39.37;95690.29;645111;216;31996;-72
2021/10/17 11:22:50;;;;;;;7.25;5.37;;;23.00;1.40;;;30.52;40.10;95687.88;647522;212;31902;-72
2021/10/17 11:25:32;;;;;;;5.87;5.05;;;23.50;1.40;;;31.00;35.75;95686.78;646352;216;31792;-72
2021/10/17 11:28:19;;;;;;;6.20;5.55;;;22.30;1.40;;;28.47;38.45;95695.37;646314;216;31626;-72
2021/10/17 11:31:11;;;;;;;6.95;5.20;;;21.90;1.40;;;28.38;38.22;95690.03;646270;212;32450;-73
2021/10/17 11:35:50;;;;;;;7.25;6.55;;;22.40;1.40;;;26.77;41.42;95685.22;645213;216;32422;-73
2021/10/17 11:38:32;;;;;;;7.03;4.60;;;21.90;1.40;;;29.36;37.37;95675.10;647028;216;31689;-72
2021/10/17 11:41:14;;;;;;;5.87;5.37;;;22.60;1.40;;;29.08;39.40;95674.10;642216;216;32659;-71
2021/10/17 11:43:58;;;;;;;7.20;6.23;;;21.80;1.40;;;28.16;41.87;95672.30;647137;212;42235;-71
2021/10/17 11:46:40;;;;;;;7.43;5.87;;;22.20;1.40;;;28.84;37.56;95666.37;646267;212;31694;-72
2021/10/17 11:49:22;;;;;;;5.85;5.03;;;21.80;1.40;;;27.87;39.92;95664.48;646432;212;31528;-72
2021/10/17 11:52:04;;;;;;;6.65;5.22;;;21.00;1.40;;;28.92;37.49;95661.38;646324;212;32023;-72
2021/10/17 11:54:49;;;;;;;6.75;5.12;;;20.20;1.40;;;27.66;40.53;95655.14;647590;216;31673;-71
2021/10/17 11:57:31;;;;;;;5.70;5.10;;;20.10;1.40;;;26.90;40.12;95657.86;647472;216;31572;-71
2021/10/17 12:00:13;;;;;;;6.30;5.70;;;18.20;1.40;;;25.74;43.73;95655.79;646744;216;31731;-72
2021/10/17 12:02:55;;;;;;;7.32;6.25;;;17.80;1.40;;;24.66;46.05;95654.19;645549;216;31608;-70